Aérodrome :
LOGIN :

S'inscrire | Disclaimer

   EN    FR    IT 

 










Légende :    VFR   VFR Marginal   IFR   IFR Intensif   IFR Très Intensif
Visi : 
Plafond : 
>= 8 km
>= 3000ft
5 à 8 km
1000 à 3000 ft
1500m à 5 km
500 à 1000 ft
800 à 1500m
200 à 500 ft
< 800m
< 200 ft
Symboles :   Orages  Brouillard  Fortes neiges  Fortes précipitations  Vent > 20 kt
SIGMETs :   Divers  Orages  Givrage  Turbulence  Onde Orograph.  Cendres Volcan.






- Altitude de l'aérodrome : 132 ft


EGXE - RAF Leeming

DERNIER METAR :
  • 190550Z 18003KT CAVOK 17/15 Q1016 RMK BLU

METARs EXPIRÉS :
  • 190520Z 17003KT CAVOK 17/15 Q1016 RMK BLU
  • 190450Z AUTO 13002KT 9999 OVC071/// 16/15 Q1016
  • 190420Z AUTO 27002KT 9999 OVC072/// 15/14 Q1016
  • 190350Z AUTO 00000KT 9999 BKN071/// 15/14 Q1017
  • 190320Z AUTO 25002KT 9000 BKN070/// 15/14 Q1017
  • 190250Z AUTO 23003KT 9999 NCD 16/14 Q1017
  • 190220Z AUTO 00000KT 9999 SCT073/// 16/15 Q1017
  • 190150Z AUTO 27002KT 9999 OVC076/// 16/14 Q1017
  • 190120Z AUTO 29002KT 9999 FEW081/// 17/14 Q1017

Prévision TAF périmée.



MET'MAP, la Météo Aéronautique d'un coup d'oeil ! - Copyright ORBIFLY Décembre 2007 - Disclaimer

ORBIFLY MET'MAP TEAM :

Programmation & Développement : Alexandra Zaïnal
Sur une idée originale de : Baudouin d'Aumeries
Soutien technique & logistique : Manuel Goepfert
Assistance : Marc-Olivier Méhu




SOURCES & CREDITS :

   NOAA